Terminal Aerodrome Forecast
Issued by NWS

Current Version | Previous Version | Graphics & Text | Print | Product List | Glossary On
Versions: 1 2 3 4 5 6 7 8 9 10 11 12 13 14 15
000
FTUS41 KPBZ 312320
TAFMGW
TAF
KMGW 312320Z 0100/0124 00000KT P6SM SCT080
     FM010900 00000KT 2SM BR SKC
     FM011400 26004KT P6SM SCT040=

USA.gov is the U.S. government's official web portal to all federal, state and local government web resources and services.